createdAt,value
2018-08-31T00:02:01.438Z,17.50
2018-08-31T00:04:43.558Z,17.50
2018-08-31T00:10:34.092Z,17.50
2018-08-31T00:13:02.445Z,17.50
2018-08-31T00:15:30.814Z,17.30
2018-08-31T00:17:59.055Z,17.40
2018-08-31T00:23:01.978Z,17.50
2018-08-31T00:26:10.652Z,17.50
2018-08-31T00:31:37.087Z,17.40
2018-08-31T00:34:20.457Z,17.50
2018-08-31T00:37:00.773Z,17.50
2018-08-31T00:39:59.287Z,17.50
2018-08-31T00:42:36.855Z,17.40
2018-08-31T00:45:38.927Z,17.30
2018-08-31T00:48:07.367Z,17.30
2018-08-31T00:50:35.908Z,17.20
2018-08-31T00:55:32.653Z,17.40
2018-08-31T00:58:00.917Z,17.40
2018-08-31T01:00:29.084Z,17.50
2018-08-31T01:02:57.340Z,17.50
2018-08-31T01:05:25.554Z,17.60
2018-08-31T01:07:53.771Z,17.60
2018-08-31T01:10:23.128Z,17.60
2018-08-31T01:12:51.733Z,17.60
2018-08-31T01:15:20.046Z,17.60
2018-08-31T01:17:48.275Z,17.70
2018-08-31T01:20:16.501Z,17.70
2018-08-31T01:22:44.735Z,17.70
2018-08-31T01:25:13.162Z,17.60
2018-08-31T01:27:41.634Z,17.60
2018-08-31T01:30:10.074Z,17.60
2018-08-31T01:32:38.282Z,17.60
2018-08-31T01:35:06.506Z,17.50
2018-08-31T01:37:34.701Z,17.40
2018-08-31T01:40:02.888Z,17.40
2018-08-31T01:42:31.083Z,17.40
2018-08-31T01:44:59.292Z,17.30
2018-08-31T01:47:27.519Z,17.10
2018-08-31T01:49:55.764Z,17.00
2018-08-31T01:52:24.052Z,17.10
2018-08-31T01:54:52.244Z,17.10
2018-08-31T01:57:20.512Z,17.10
2018-08-31T01:59:48.714Z,17.10
2018-08-31T02:02:17.823Z,17.00
2018-08-31T02:04:46.071Z,17.00
2018-08-31T02:07:15.207Z,17.00
2018-08-31T02:09:44.576Z,17.00
2018-08-31T02:12:13.243Z,17.00
2018-08-31T02:14:41.445Z,16.90
2018-08-31T02:17:09.665Z,17.00
2018-08-31T02:19:38.129Z,16.90
2018-08-31T02:22:12.743Z,16.90
2018-08-31T02:24:40.971Z,17.00
2018-08-31T02:27:09.195Z,16.90
2018-08-31T02:29:37.394Z,17.00
2018-08-31T02:32:05.683Z,17.10
2018-08-31T02:34:33.898Z,17.00
2018-08-31T02:37:02.144Z,17.10
2018-08-31T02:39:30.328Z,17.10
2018-08-31T02:41:58.517Z,17.10
2018-08-31T02:44:26.708Z,17.10
2018-08-31T02:46:54.906Z,17.10
2018-08-31T02:49:23.131Z,17.10
2018-08-31T02:51:51.367Z,17.10
2018-08-31T02:54:19.562Z,17.00
2018-08-31T02:56:47.744Z,17.20
2018-08-31T03:01:44.011Z,17.20
2018-08-31T03:06:40.281Z,17.20
2018-08-31T03:09:08.503Z,17.20
2018-08-31T03:11:36.823Z,17.20
2018-08-31T03:14:04.879Z,17.20
2018-08-31T03:16:33.135Z,17.10
2018-08-31T03:19:01.410Z,17.00
2018-08-31T03:21:29.695Z,16.90
2018-08-31T03:23:57.980Z,16.90
2018-08-31T03:26:26.168Z,17.00
2018-08-31T03:28:54.377Z,17.00
2018-08-31T03:31:22.570Z,17.00
2018-08-31T03:33:50.755Z,17.00
2018-08-31T03:36:18.972Z,17.00
2018-08-31T03:38:47.211Z,17.00
2018-08-31T03:41:15.414Z,17.20
2018-08-31T03:43:43.607Z,17.00
2018-08-31T03:46:11.791Z,16.80
2018-08-31T03:48:40.001Z,16.80
2018-08-31T03:51:08.188Z,16.80
2018-08-31T03:53:36.396Z,16.60
2018-08-31T03:56:04.627Z,16.50
2018-08-31T03:58:32.819Z,16.50
2018-08-31T04:01:01.013Z,16.60
2018-08-31T04:03:29.334Z,16.60
2018-08-31T04:05:57.523Z,16.60
2018-08-31T04:08:25.739Z,16.60
2018-08-31T04:10:53.958Z,16.50
2018-08-31T04:13:22.158Z,16.50
2018-08-31T04:15:50.419Z,16.50
2018-08-31T04:18:18.610Z,16.50
2018-08-31T04:20:46.810Z,16.50
2018-08-31T04:23:15.021Z,16.60
2018-08-31T04:25:43.315Z,16.70
2018-08-31T04:28:11.517Z,16.70
2018-08-31T04:30:39.730Z,16.70
2018-08-31T04:33:07.943Z,16.80
2018-08-31T04:35:36.145Z,16.70
2018-08-31T04:38:04.419Z,16.60
2018-08-31T04:40:32.609Z,16.60
2018-08-31T04:43:00.846Z,16.50
2018-08-31T04:45:29.002Z,16.50
2018-08-31T04:47:57.200Z,16.60
2018-08-31T04:50:25.482Z,16.50
2018-08-31T04:52:53.598Z,16.70
2018-08-31T04:55:21.791Z,16.60
2018-08-31T04:57:49.987Z,16.60
2018-08-31T05:02:46.149Z,16.70
2018-08-31T05:05:14.394Z,16.60
2018-08-31T05:07:42.574Z,16.60
2018-08-31T05:10:10.774Z,16.70
2018-08-31T05:12:39.028Z,16.70
2018-08-31T05:15:07.221Z,16.60
2018-08-31T05:17:35.502Z,16.60
2018-08-31T05:20:03.820Z,16.60
2018-08-31T05:22:32.048Z,16.60
2018-08-31T05:25:00.212Z,16.60
2018-08-31T05:27:28.472Z,16.60
2018-08-31T05:29:56.715Z,16.50
2018-08-31T05:32:24.899Z,16.60
2018-08-31T05:34:53.225Z,16.80
2018-08-31T05:37:21.395Z,16.90
2018-08-31T05:39:49.615Z,16.90
2018-08-31T05:42:17.828Z,17.00
2018-08-31T05:44:46.080Z,17.00
2018-08-31T05:47:14.262Z,17.00
2018-08-31T05:49:42.651Z,16.70
2018-08-31T05:52:10.865Z,17.00
2018-08-31T05:54:45.826Z,17.10
2018-08-31T05:57:14.012Z,17.00
2018-08-31T05:59:42.224Z,16.90
2018-08-31T06:04:38.431Z,16.90
2018-08-31T06:07:06.647Z,17.00
2018-08-31T06:09:34.867Z,17.00
2018-08-31T06:12:03.154Z,17.10
2018-08-31T06:14:31.271Z,17.20
2018-08-31T06:16:59.472Z,17.20
2018-08-31T06:19:27.693Z,17.20
2018-08-31T06:21:55.980Z,17.30
2018-08-31T06:24:24.173Z,17.20
2018-08-31T06:26:52.365Z,17.20
2018-08-31T06:29:20.616Z,17.20
2018-08-31T06:31:48.827Z,17.20
2018-08-31T06:34:17.064Z,17.20
2018-08-31T06:36:45.350Z,17.20
2018-08-31T06:42:45.077Z,17.40
2018-08-31T06:45:19.753Z,17.30
2018-08-31T06:47:48.006Z,17.30
2018-08-31T06:50:16.250Z,17.30
2018-08-31T06:52:44.480Z,17.30
2018-08-31T06:55:12.712Z,17.40
2018-08-31T06:57:40.933Z,17.30
2018-08-31T07:00:09.223Z,17.30
2018-08-31T07:02:37.474Z,17.30
2018-08-31T07:05:06.286Z,17.40
2018-08-31T07:07:34.499Z,17.40
2018-08-31T07:10:02.752Z,17.40
2018-08-31T07:12:31.053Z,17.40
2018-08-31T07:14:59.256Z,17.40
2018-08-31T07:17:30.499Z,17.50
2018-08-31T07:19:58.791Z,17.50
2018-08-31T07:22:27.003Z,17.60
2018-08-31T07:24:55.239Z,17.60
2018-08-31T07:27:23.463Z,17.40
2018-08-31T07:29:51.699Z,17.70
2018-08-31T07:32:19.958Z,17.40
2018-08-31T07:34:48.140Z,17.30
2018-08-31T07:37:16.468Z,17.30
2018-08-31T07:39:44.720Z,18.40
2018-08-31T07:42:12.994Z,17.30
2018-08-31T07:44:41.202Z,17.30
2018-08-31T07:47:09.409Z,17.30
2018-08-31T07:49:37.633Z,17.30
2018-08-31T07:52:06.202Z,17.30
2018-08-31T07:54:34.427Z,17.30
2018-08-31T07:57:02.669Z,17.30
2018-08-31T07:59:30.899Z,17.40
2018-08-31T08:01:59.127Z,17.30
2018-08-31T08:04:27.350Z,17.10
2018-08-31T08:06:55.596Z,17.20
2018-08-31T08:09:30.603Z,17.20
2018-08-31T08:11:58.871Z,17.20
2018-08-31T08:14:27.075Z,17.20
2018-08-31T08:16:55.315Z,17.20
2018-08-31T08:19:23.538Z,17.20
2018-08-31T08:21:51.751Z,17.30
2018-08-31T08:24:20.072Z,17.40
2018-08-31T08:26:48.299Z,17.50
2018-08-31T08:29:16.496Z,17.60
2018-08-31T08:31:44.749Z,17.50
2018-08-31T08:34:12.964Z,17.40
2018-08-31T08:36:41.191Z,17.40
2018-08-31T08:46:33.302Z,17.60
2018-08-31T08:49:01.503Z,17.50
2018-08-31T08:51:29.731Z,17.50
2018-08-31T08:53:57.930Z,17.40
2018-08-31T08:56:26.155Z,17.40
2018-08-31T08:58:54.358Z,17.40
2018-08-31T09:01:22.658Z,17.50
2018-08-31T09:03:50.864Z,17.50
2018-08-31T09:06:19.064Z,17.50
2018-08-31T09:08:47.250Z,17.60
2018-08-31T09:11:15.452Z,17.60
2018-08-31T09:13:43.636Z,17.60
2018-08-31T09:16:11.884Z,17.70
2018-08-31T09:18:40.102Z,17.70
2018-08-31T09:21:08.295Z,17.70
2018-08-31T09:23:36.478Z,17.70
2018-08-31T09:26:07.196Z,17.70
2018-08-31T09:28:35.408Z,17.70
2018-08-31T09:31:07.119Z,17.80
2018-08-31T09:33:35.352Z,17.60
2018-08-31T09:36:03.562Z,17.60
2018-08-31T09:38:31.969Z,17.50
2018-08-31T09:48:24.100Z,17.70
2018-08-31T09:50:52.338Z,17.70
2018-08-31T09:53:20.573Z,17.70
2018-08-31T09:55:48.804Z,17.70
2018-08-31T09:58:17.031Z,17.70
2018-08-31T10:00:50.643Z,17.70
2018-08-31T10:03:24.249Z,17.70
2018-08-31T10:05:53.536Z,17.70
2018-08-31T10:08:22.612Z,17.70
2018-08-31T10:10:50.929Z,17.80
2018-08-31T10:13:19.163Z,17.80
2018-08-31T10:15:47.432Z,17.80
2018-08-31T10:18:15.676Z,17.80
2018-08-31T10:20:43.926Z,17.80
2018-08-31T10:23:12.242Z,17.80
2018-08-31T10:25:40.456Z,17.80
2018-08-31T10:28:08.691Z,17.70
2018-08-31T10:30:43.288Z,17.70
2018-08-31T10:33:11.488Z,17.80
2018-08-31T10:35:39.686Z,17.80
2018-08-31T10:38:07.892Z,17.90
2018-08-31T10:40:36.079Z,17.90
2018-08-31T10:43:04.286Z,17.80
2018-08-31T10:45:32.477Z,17.80
2018-08-31T10:48:00.678Z,17.80
2018-08-31T10:50:28.868Z,17.90
2018-08-31T10:52:57.059Z,17.80
2018-08-31T10:55:25.332Z,17.80
2018-08-31T10:57:53.526Z,17.80
2018-08-31T11:00:21.727Z,17.80
2018-08-31T11:02:49.954Z,17.80
2018-08-31T11:05:18.198Z,17.70
2018-08-31T11:07:46.407Z,17.70
2018-08-31T11:10:14.607Z,17.70
2018-08-31T11:12:42.921Z,17.70
2018-08-31T11:15:11.061Z,17.70
2018-08-31T11:17:39.294Z,17.70
2018-08-31T11:20:07.500Z,17.80
2018-08-31T11:22:35.704Z,17.80
2018-08-31T11:25:03.912Z,17.80
2018-08-31T11:27:32.142Z,17.80
2018-08-31T11:30:00.395Z,17.90
2018-08-31T11:32:28.631Z,17.90
2018-08-31T11:34:56.861Z,17.90
2018-08-31T11:37:25.117Z,17.80
2018-08-31T11:39:53.364Z,17.80
2018-08-31T11:42:21.675Z,17.80
2018-08-31T11:44:49.902Z,17.60
2018-08-31T11:47:18.124Z,17.70
2018-08-31T11:49:46.346Z,17.70
2018-08-31T11:54:42.618Z,17.70
2018-08-31T11:57:10.963Z,17.70
2018-08-31T11:59:39.184Z,17.60
2018-08-31T12:02:07.515Z,17.60
2018-08-31T12:04:35.611Z,17.40
2018-08-31T12:07:03.832Z,17.40
2018-08-31T12:09:32.126Z,17.40
2018-08-31T12:12:00.355Z,17.50
2018-08-31T12:14:28.577Z,17.60
2018-08-31T12:16:56.826Z,17.80
2018-08-31T12:19:25.049Z,17.80
2018-08-31T12:21:53.249Z,17.80
2018-08-31T12:24:21.563Z,17.90
2018-08-31T12:26:49.841Z,17.90
2018-08-31T12:29:18.064Z,17.90
2018-08-31T12:31:46.277Z,17.80
2018-08-31T12:34:14.533Z,17.90
2018-08-31T12:36:42.731Z,17.90
2018-08-31T12:39:11.591Z,17.90
2018-08-31T12:41:39.955Z,17.70
2018-08-31T12:44:08.315Z,17.80
2018-08-31T12:46:36.484Z,17.60
2018-08-31T12:49:04.976Z,17.70
2018-08-31T12:51:33.195Z,17.30
2018-08-31T12:54:01.406Z,17.70
2018-08-31T12:56:29.747Z,17.80
2018-08-31T12:58:57.995Z,17.70
2018-08-31T13:01:26.263Z,17.80
2018-08-31T13:03:54.471Z,17.80
2018-08-31T13:06:22.735Z,17.80
2018-08-31T13:08:51.020Z,17.90
2018-08-31T13:11:19.263Z,17.90
2018-08-31T13:13:47.607Z,18.00
2018-08-31T13:16:15.812Z,18.00
2018-08-31T13:18:44.015Z,18.10
2018-08-31T13:21:12.259Z,18.20
2018-08-31T13:23:40.560Z,18.20
2018-08-31T13:26:08.822Z,18.30
2018-08-31T13:28:37.095Z,18.30
2018-08-31T13:31:05.402Z,18.30
2018-08-31T13:33:33.672Z,18.30
2018-08-31T13:36:01.885Z,18.20
2018-08-31T13:38:30.125Z,18.10
2018-08-31T13:40:58.386Z,18.10
2018-08-31T13:43:27.671Z,18.10
2018-08-31T13:45:55.992Z,18.00
2018-08-31T13:48:24.255Z,18.00
2018-08-31T13:50:52.559Z,18.10
2018-08-31T13:53:20.884Z,18.10
2018-08-31T13:55:49.163Z,18.00
2018-08-31T13:58:17.510Z,18.10
2018-08-31T14:00:45.736Z,18.20
2018-08-31T14:03:13.978Z,18.10
2018-08-31T14:05:42.274Z,18.10
2018-08-31T14:08:10.545Z,18.10
2018-08-31T14:10:38.827Z,18.10
2018-08-31T14:13:07.090Z,18.00
2018-08-31T14:15:35.391Z,18.10
2018-08-31T14:18:03.659Z,18.10
2018-08-31T14:20:31.909Z,18.00
2018-08-31T14:23:00.186Z,18.10
2018-08-31T14:25:28.466Z,18.00
2018-08-31T14:27:56.736Z,17.90
2018-08-31T14:30:25.041Z,17.90
2018-08-31T14:32:53.320Z,17.90
2018-08-31T14:35:21.602Z,18.00
2018-08-31T14:37:49.864Z,18.00
2018-08-31T14:40:18.132Z,18.10
2018-08-31T14:42:46.412Z,18.00
2018-08-31T14:45:14.720Z,18.00
2018-08-31T14:47:42.920Z,18.00
2018-08-31T14:50:11.144Z,18.00
2018-08-31T14:52:39.584Z,18.00
2018-08-31T14:55:07.875Z,18.00
2018-08-31T14:57:36.253Z,18.10
2018-08-31T15:00:04.438Z,18.00
2018-08-31T15:05:01.046Z,18.00
2018-08-31T15:07:29.276Z,18.10
2018-08-31T15:09:57.549Z,18.10
2018-08-31T15:12:25.926Z,18.10
2018-08-31T15:14:54.211Z,18.10
2018-08-31T15:17:22.472Z,18.00
2018-08-31T15:19:50.763Z,17.90
2018-08-31T15:22:19.047Z,18.00
2018-08-31T15:24:47.307Z,17.90
2018-08-31T15:27:15.620Z,17.90
2018-08-31T15:29:43.880Z,17.90
2018-08-31T15:32:12.165Z,18.00
2018-08-31T15:34:40.484Z,18.10
2018-08-31T15:37:08.698Z,18.10
2018-08-31T15:39:36.987Z,18.10
2018-08-31T15:42:05.276Z,18.10
2018-08-31T15:44:33.611Z,18.20
2018-08-31T15:47:01.912Z,18.10
2018-08-31T15:49:30.229Z,18.10
2018-08-31T15:51:58.456Z,18.10
2018-08-31T15:54:26.689Z,18.20
2018-08-31T15:56:55.020Z,18.10
2018-08-31T15:59:23.308Z,18.00
2018-08-31T16:01:51.605Z,18.00
2018-08-31T16:04:19.908Z,18.00
2018-08-31T16:06:48.227Z,18.00
2018-08-31T16:09:16.622Z,18.00
2018-08-31T16:11:44.782Z,17.90
2018-08-31T16:14:13.081Z,17.90
2018-08-31T16:16:41.332Z,17.80
2018-08-31T16:19:09.670Z,17.80
2018-08-31T16:21:37.959Z,17.90
2018-08-31T16:24:06.314Z,17.90
2018-08-31T16:26:34.556Z,17.90
2018-08-31T16:29:02.917Z,17.90
2018-08-31T16:31:31.189Z,17.90
2018-08-31T16:33:59.457Z,18.00
2018-08-31T16:36:27.901Z,17.90
2018-08-31T16:38:56.239Z,18.00
2018-08-31T16:41:24.479Z,17.90
2018-08-31T16:43:52.767Z,17.80
2018-08-31T16:46:21.045Z,17.70
2018-08-31T16:48:49.323Z,17.70
2018-08-31T16:51:17.582Z,17.60
2018-08-31T16:53:45.877Z,17.70
2018-08-31T16:56:14.168Z,17.50
2018-08-31T16:58:42.484Z,17.50
2018-08-31T17:01:10.844Z,17.50
2018-08-31T17:03:39.059Z,17.50
2018-08-31T17:08:35.319Z,17.50
2018-08-31T17:11:04.367Z,17.60
2018-08-31T17:13:32.593Z,17.50
2018-08-31T17:16:00.880Z,17.50
2018-08-31T17:18:29.143Z,17.50
2018-08-31T17:20:57.445Z,17.40
2018-08-31T17:23:25.731Z,17.40
2018-08-31T17:25:54.127Z,17.30
2018-08-31T17:28:27.770Z,17.30
2018-08-31T17:31:01.412Z,17.40
2018-08-31T17:33:35.056Z,17.40
2018-08-31T17:36:08.567Z,17.40
2018-08-31T17:38:36.791Z,17.20
2018-08-31T17:41:05.048Z,17.20
2018-08-31T17:43:33.298Z,17.20
2018-08-31T17:46:01.511Z,17.20
2018-08-31T17:48:29.716Z,17.20
2018-08-31T17:50:58.072Z,17.20
2018-08-31T17:53:26.415Z,17.10
2018-08-31T17:55:54.662Z,17.10
2018-08-31T17:58:24.180Z,17.20
2018-08-31T18:00:52.447Z,17.20
2018-08-31T18:03:20.762Z,17.30
2018-08-31T18:05:48.966Z,17.20
2018-08-31T18:08:17.287Z,17.10
2018-08-31T18:10:51.967Z,16.70
2018-08-31T18:13:20.367Z,16.80
2018-08-31T18:15:48.597Z,16.80
2018-08-31T18:18:16.813Z,16.80
2018-08-31T18:20:45.083Z,16.80
2018-08-31T18:28:09.322Z,16.80
2018-08-31T18:30:37.782Z,16.90
2018-08-31T18:33:06.175Z,17.00
2018-08-31T18:35:34.373Z,16.90
2018-08-31T18:38:02.621Z,16.90
2018-08-31T18:40:30.884Z,16.90
2018-08-31T18:42:59.127Z,16.90
2018-08-31T18:45:28.708Z,17.00
2018-08-31T18:47:56.956Z,16.90
2018-08-31T18:50:25.436Z,16.80
2018-08-31T18:52:53.746Z,16.80
2018-08-31T18:55:22.005Z,16.80
2018-08-31T18:57:50.284Z,16.80
2018-08-31T19:00:18.496Z,16.90
2018-08-31T19:02:46.708Z,16.90
2018-08-31T19:05:14.987Z,16.90
2018-08-31T19:07:43.242Z,16.90
2018-08-31T19:10:11.447Z,16.90
2018-08-31T19:12:39.702Z,16.90
2018-08-31T19:15:07.973Z,16.90
2018-08-31T19:17:36.268Z,16.90
2018-08-31T19:20:04.471Z,17.00
2018-08-31T19:25:00.761Z,16.90
2018-08-31T19:29:56.940Z,17.00
2018-08-31T19:32:25.182Z,17.00
2018-08-31T19:34:53.478Z,17.00
2018-08-31T19:37:21.751Z,17.00
2018-08-31T19:39:50.011Z,17.00
2018-08-31T19:42:18.299Z,17.00
2018-08-31T19:44:46.577Z,17.00
2018-08-31T19:47:14.855Z,17.00
2018-08-31T19:49:43.065Z,17.00
2018-08-31T19:52:11.306Z,17.00
2018-08-31T19:54:39.607Z,17.10
2018-08-31T19:57:07.863Z,17.00
2018-08-31T19:59:36.074Z,17.10
2018-08-31T20:02:04.258Z,17.00
2018-08-31T20:04:32.460Z,17.00
2018-08-31T20:07:00.797Z,17.00
2018-08-31T20:09:29.039Z,16.90
2018-08-31T20:11:57.294Z,16.90
2018-08-31T20:14:25.579Z,16.90
2018-08-31T20:16:53.844Z,16.90
2018-08-31T20:19:22.099Z,16.90
2018-08-31T20:21:50.415Z,16.90
2018-08-31T20:26:46.779Z,16.80
2018-08-31T20:31:43.159Z,16.90
2018-08-31T20:34:11.427Z,17.00
2018-08-31T20:36:39.683Z,17.00
2018-08-31T20:39:09.541Z,17.00
2018-08-31T20:41:37.845Z,17.00
2018-08-31T20:44:06.162Z,17.00
2018-08-31T20:46:34.440Z,16.90
2018-08-31T20:49:02.670Z,16.90
2018-08-31T20:51:30.895Z,16.80
2018-08-31T20:53:59.176Z,16.80
2018-08-31T20:56:27.463Z,16.70
2018-08-31T20:58:55.704Z,16.60
2018-08-31T21:01:23.949Z,16.50
2018-08-31T21:03:53.047Z,16.40
2018-08-31T21:06:21.315Z,16.30
2018-08-31T21:08:49.620Z,16.40
2018-08-31T21:11:17.891Z,16.40
2018-08-31T21:13:46.169Z,16.40
2018-08-31T21:16:14.423Z,16.40
2018-08-31T21:18:42.711Z,16.50
2018-08-31T21:21:10.990Z,16.50
2018-08-31T21:23:39.249Z,16.60
2018-08-31T21:26:07.828Z,16.70
2018-08-31T21:31:04.258Z,16.60
2018-08-31T21:33:32.583Z,16.60
2018-08-31T21:36:00.896Z,16.60
2018-08-31T21:38:29.123Z,16.60
2018-08-31T21:40:57.417Z,16.60
2018-08-31T21:43:25.716Z,16.60
2018-08-31T21:45:53.963Z,16.70
2018-08-31T21:48:22.260Z,16.60
2018-08-31T21:50:50.526Z,16.60
2018-08-31T21:53:18.783Z,16.60
2018-08-31T21:55:47.035Z,16.60
2018-08-31T21:58:15.371Z,16.60
2018-08-31T22:00:44.715Z,16.60
2018-08-31T22:03:13.349Z,16.60
2018-08-31T22:05:42.643Z,16.60
2018-08-31T22:08:10.918Z,16.60
2018-08-31T22:10:39.247Z,16.50
2018-08-31T22:13:07.580Z,16.60
2018-08-31T22:15:35.848Z,16.50
2018-08-31T22:18:04.074Z,16.60
2018-08-31T22:20:32.393Z,16.60
2018-08-31T22:23:00.643Z,16.60
2018-08-31T22:25:28.993Z,16.50
2018-08-31T22:27:57.330Z,16.50
2018-08-31T22:30:25.575Z,16.50
2018-08-31T22:32:54.986Z,16.40
2018-08-31T22:35:23.251Z,16.40
2018-08-31T22:37:51.551Z,16.40
2018-08-31T22:40:19.833Z,16.50
2018-08-31T22:42:48.125Z,16.50
2018-08-31T22:45:16.407Z,16.60
2018-08-31T22:47:45.088Z,16.50
2018-08-31T22:50:14.208Z,16.60
2018-08-31T22:52:42.789Z,16.60
2018-08-31T22:55:11.105Z,16.50
2018-08-31T22:57:39.411Z,16.50
2018-08-31T23:00:07.680Z,16.50
2018-08-31T23:02:35.936Z,16.50
2018-08-31T23:05:04.381Z,16.50
2018-08-31T23:07:38.158Z,16.50
2018-08-31T23:10:06.558Z,16.50
2018-08-31T23:12:34.914Z,16.50
2018-08-31T23:15:03.174Z,16.50
2018-08-31T23:17:31.475Z,16.40
2018-08-31T23:20:00.152Z,16.50
2018-08-31T23:22:29.300Z,16.40
2018-08-31T23:24:58.748Z,16.40
2018-08-31T23:27:27.346Z,16.40
2018-08-31T23:29:55.810Z,16.40
2018-08-31T23:32:24.491Z,16.30
2018-08-31T23:34:52.968Z,16.30
2018-08-31T23:37:22.284Z,16.30
2018-08-31T23:44:46.692Z,16.20
2018-08-31T23:47:14.949Z,16.30
2018-08-31T23:49:43.246Z,16.30
2018-08-31T23:52:11.512Z,16.30
2018-08-31T23:54:39.775Z,16.20
2018-08-31T23:57:08.068Z,16.20
2018-08-31T23:59:36.336Z,16.20
